RJFG(METAR)
07/17 15:00
METAR RJFG 170600Z 11011KT 9999 FEW005 SCT010 BKN015 27/25 Q1012 RMK
1ST005 4CU010 5CU015 A2988=
戻る
トップページへ戻る
IMOC Co,.Ltd.